Time;durP1;ratioP1;P1;durP2;ratioP2;P2;SDS_P1;SDS_P2;PMS_P1;PMS_P2;Temp;Humidity;BMP_temperature;BMP_pressure;BME280_temperature;BME280_humidity;BME280_pressure;Samples;Min_cycle;Max_cycle;Signal;HPM_P1;HPM_P2
2023/11/27 00:01:30;;;;;;;3.03;2.17;;;;;;;;;;4932115;29;20031;-59
2023/11/27 00:03:56;;;;;;;3.40;2.50;;;;;;;;;;4935983;28;20051;-58
2023/11/27 00:06:22;;;;;;;3.97;2.28;;;;;;;;;;4935735;29;20043;-57
2023/11/27 00:08:48;;;;;;;3.70;2.30;;;;;;;;;;4932860;29;20031;-58
2023/11/27 00:11:15;;;;;;;3.33;2.10;;;;;;;;;;4935475;29;20471;-59
2023/11/27 00:13:41;;;;;;;3.50;2.42;;;;;;;;;;4938894;29;20031;-60
2023/11/27 00:16:08;;;;;;;4.57;2.45;;;;;;;;;;4929192;29;20031;-58
2023/11/27 00:18:35;;;;;;;3.28;2.45;;;;;;;;;;4936336;29;20130;-59
2023/11/27 00:21:01;;;;;;;4.93;3.05;;;;;;;;;;4930572;29;20052;-60
2023/11/27 00:23:27;;;;;;;4.63;2.67;;;;;;;;;;4936672;29;20048;-59
2023/11/27 00:25:53;;;;;;;5.40;3.42;;;;;;;;;;4932313;29;20032;-58
2023/11/27 00:28:19;;;;;;;5.45;3.35;;;;;;;;;;4935411;29;20067;-59
2023/11/27 00:30:45;;;;;;;5.13;3.42;;;;;;;;;;4934357;29;20055;-59
2023/11/27 00:33:12;;;;;;;4.68;3.17;;;;;;;;;;4932522;29;20054;-59
2023/11/27 00:35:38;;;;;;;5.68;3.50;;;;;;;;;;4935822;29;20035;-59
2023/11/27 00:38:04;;;;;;;4.93;3.35;;;;;;;;;;4935652;29;20038;-60
2023/11/27 00:40:30;;;;;;;4.95;3.03;;;;;;;;;;4931463;29;20471;-59
2023/11/27 00:42:56;;;;;;;4.97;3.00;;;;;;;;;;4934261;29;20048;-59
2023/11/27 00:45:22;;;;;;;5.47;3.08;;;;;;;;;;4937845;28;20491;-59
2023/11/27 00:47:48;;;;;;;5.13;3.50;;;;;;;;;;4928521;29;20050;-59
2023/11/27 00:50:14;;;;;;;6.78;3.72;;;;;;;;;;4916077;29;20043;-59
2023/11/27 00:52:41;;;;;;;4.78;3.40;;;;;;;;;;4932171;29;20051;-59
2023/11/27 00:55:08;;;;;;;5.57;3.63;;;;;;;;;;4934694;29;20023;-58
2023/11/27 00:57:34;;;;;;;5.50;3.17;;;;;;;;;;4933056;29;20414;-59
2023/11/27 01:00:00;;;;;;;6.15;3.38;;;;;;;;;;4934099;29;20047;-59
2023/11/27 01:02:26;;;;;;;7.32;3.25;;;;;;;;;;4933184;29;20040;-58
2023/11/27 01:04:52;;;;;;;3.83;2.85;;;;;;;;;;4935467;29;20042;-57
2023/11/27 01:07:18;;;;;;;5.05;3.10;;;;;;;;;;4932531;29;20059;-56
2023/11/27 01:09:44;;;;;;;7.28;3.17;;;;;;;;;;4932888;29;20047;-58
2023/11/27 01:12:11;;;;;;;4.95;2.75;;;;;;;;;;4935188;29;20045;-57
2023/11/27 01:14:37;;;;;;;6.50;2.90;;;;;;;;;;4937239;29;20066;-58
2023/11/27 01:17:03;;;;;;;5.70;3.53;;;;;;;;;;4932236;29;20034;-57
2023/11/27 01:19:29;;;;;;;6.53;2.95;;;;;;;;;;4916167;29;20047;-57
2023/11/27 01:21:55;;;;;;;7.68;3.75;;;;;;;;;;4933310;29;20027;-58
2023/11/27 01:24:23;;;;;;;6.75;3.85;;;;;;;;;;4935979;29;20480;-57
2023/11/27 01:26:51;;;;;;;6.47;3.20;;;;;;;;;;4937899;29;20035;-56
2023/11/27 01:29:18;;;;;;;6.30;3.15;;;;;;;;;;4938981;29;20403;-57
2023/11/27 01:31:44;;;;;;;6.35;3.75;;;;;;;;;;4936685;29;20047;-57
2023/11/27 01:34:10;;;;;;;5.15;3.10;;;;;;;;;;4937399;29;20112;-57
2023/11/27 01:36:37;;;;;;;7.55;3.97;;;;;;;;;;4939955;29;20031;-57
2023/11/27 01:39:03;;;;;;;5.40;3.00;;;;;;;;;;4932437;29;20054;-57
2023/11/27 01:41:30;;;;;;;5.47;3.30;;;;;;;;;;4936164;29;20115;-57
2023/11/27 01:43:56;;;;;;;4.55;2.85;;;;;;;;;;4935177;29;20476;-58
2023/11/27 01:46:24;;;;;;;4.88;2.83;;;;;;;;;;4935559;29;20058;-58
2023/11/27 01:48:55;;;;;;;4.50;2.80;;;;;;;;;;4932333;29;20036;-57
2023/11/27 01:51:22;;;;;;;3.83;2.95;;;;;;;;;;4933603;29;20032;-56
2023/11/27 01:53:51;;;;;;;4.15;2.85;;;;;;;;;;4934339;29;20532;-57
2023/11/27 01:56:19;;;;;;;6.10;2.80;;;;;;;;;;4933870;29;20043;-58
2023/11/27 01:58:48;;;;;;;5.25;2.60;;;;;;;;;;4915059;29;20039;-57
2023/11/27 02:01:14;;;;;;;4.35;2.60;;;;;;;;;;4931851;29;20054;-57
2023/11/27 02:03:40;;;;;;;5.68;2.60;;;;;;;;;;4935414;29;20039;-57
2023/11/27 02:06:07;;;;;;;3.65;2.45;;;;;;;;;;4932403;29;20039;-60
2023/11/27 02:08:33;;;;;;;3.78;2.67;;;;;;;;;;4932281;29;20040;-59
2023/11/27 02:10:59;;;;;;;3.85;2.20;;;;;;;;;;4931836;29;20058;-59
2023/11/27 02:13:25;;;;;;;3.05;2.15;;;;;;;;;;4930162;29;20048;-60
2023/11/27 02:15:52;;;;;;;4.07;2.40;;;;;;;;;;4930481;29;20040;-58
2023/11/27 02:18:19;;;;;;;2.88;2.35;;;;;;;;;;4929465;29;20051;-59
2023/11/27 02:20:46;;;;;;;2.85;1.60;;;;;;;;;;4928620;29;20135;-61
2023/11/27 02:23:14;;;;;;;2.55;1.80;;;;;;;;;;4936702;29;20039;-59
2023/11/27 02:25:40;;;;;;;2.80;2.00;;;;;;;;;;4929847;29;20039;-60
2023/11/27 02:28:07;;;;;;;3.08;2.08;;;;;;;;;;4933885;29;20038;-58
2023/11/27 02:30:34;;;;;;;4.38;2.15;;;;;;;;;;4932198;29;20614;-59
2023/11/27 02:33:01;;;;;;;2.80;1.88;;;;;;;;;;4930540;29;20055;-59
2023/11/27 02:35:27;;;;;;;3.58;2.53;;;;;;;;;;4934949;29;20047;-59
2023/11/27 02:37:53;;;;;;;2.58;1.92;;;;;;;;;;4932166;28;20044;-58
2023/11/27 02:40:21;;;;;;;4.13;2.33;;;;;;;;;;4929771;29;20054;-59
2023/11/27 02:42:48;;;;;;;4.07;2.40;;;;;;;;;;4926519;29;20036;-59
2023/11/27 02:45:15;;;;;;;3.58;2.53;;;;;;;;;;4932828;28;20055;-58
2023/11/27 02:47:41;;;;;;;4.88;2.20;;;;;;;;;;4930418;29;20028;-59
2023/11/27 02:50:08;;;;;;;3.13;2.28;;;;;;;;;;4930733;29;20027;-58
2023/11/27 02:52:34;;;;;;;3.97;2.35;;;;;;;;;;4931702;29;20054;-59
2023/11/27 02:55:00;;;;;;;3.38;2.17;;;;;;;;;;4931782;29;20390;-60
2023/11/27 02:57:27;;;;;;;2.40;1.90;;;;;;;;;;4929242;29;20055;-59
2023/11/27 02:59:53;;;;;;;3.38;2.00;;;;;;;;;;4930927;29;20055;-59
2023/11/27 03:02:20;;;;;;;5.57;1.85;;;;;;;;;;4933457;29;20031;-60
2023/11/27 03:04:46;;;;;;;3.05;2.00;;;;;;;;;;4930806;29;20051;-59
2023/11/27 03:07:13;;;;;;;2.53;1.75;;;;;;;;;;4932283;29;20086;-61
2023/11/27 03:09:39;;;;;;;3.80;1.90;;;;;;;;;;4934039;29;20067;-58
2023/11/27 03:12:05;;;;;;;3.97;1.75;;;;;;;;;;4929266;29;20056;-60
2023/11/27 03:14:31;;;;;;;3.72;1.85;;;;;;;;;;4931852;29;20066;-60
2023/11/27 03:16:57;;;;;;;3.33;1.67;;;;;;;;;;4932341;29;20051;-60
2023/11/27 03:19:23;;;;;;;5.22;2.10;;;;;;;;;;4938383;29;20056;-59
2023/11/27 03:21:50;;;;;;;2.00;1.50;;;;;;;;;;4932284;29;20066;-59
2023/11/27 03:24:16;;;;;;;2.97;1.65;;;;;;;;;;4936256;29;20506;-58
2023/11/27 03:26:42;;;;;;;2.42;1.70;;;;;;;;;;4932641;29;20472;-58
2023/11/27 03:29:08;;;;;;;3.10;1.80;;;;;;;;;;4934878;29;20054;-58
2023/11/27 03:31:34;;;;;;;3.63;1.73;;;;;;;;;;4933544;29;20032;-59
2023/11/27 03:34:00;;;;;;;2.28;1.58;;;;;;;;;;4933726;29;20035;-59
2023/11/27 03:36:26;;;;;;;2.35;1.67;;;;;;;;;;4931490;29;20470;-61
2023/11/27 03:38:52;;;;;;;1.90;1.58;;;;;;;;;;4933344;29;20035;-59
2023/11/27 03:41:23;;;;;;;1.80;1.50;;;;;;;;;;4932508;29;20054;-59
2023/11/27 03:43:50;;;;;;;3.45;1.58;;;;;;;;;;4926065;29;20481;-60
2023/11/27 03:46:16;;;;;;;3.22;1.40;;;;;;;;;;4933502;29;20046;-59
2023/11/27 03:48:42;;;;;;;3.47;1.58;;;;;;;;;;4928264;29;20040;-60
2023/11/27 03:51:09;;;;;;;2.83;1.70;;;;;;;;;;4933727;29;20027;-59
2023/11/27 03:53:35;;;;;;;3.88;1.73;;;;;;;;;;4934861;29;20387;-59
2023/11/27 03:56:02;;;;;;;3.15;1.73;;;;;;;;;;4932373;29;20067;-58
2023/11/27 03:58:29;;;;;;;3.08;2.20;;;;;;;;;;4932977;29;20047;-59
2023/11/27 04:00:55;;;;;;;5.05;1.90;;;;;;;;;;4932807;29;20070;-59
2023/11/27 04:03:21;;;;;;;2.38;1.60;;;;;;;;;;4933533;29;20032;-58
2023/11/27 04:05:47;;;;;;;4.60;2.28;;;;;;;;;;4932411;29;20042;-60
2023/11/27 04:08:14;;;;;;;4.22;2.00;;;;;;;;;;4933714;29;20047;-59
2023/11/27 04:10:41;;;;;;;2.95;2.13;;;;;;;;;;4934192;29;20055;-60
2023/11/27 04:13:07;;;;;;;3.35;1.80;;;;;;;;;;4929970;29;20024;-58
2023/11/27 04:15:33;;;;;;;3.25;2.00;;;;;;;;;;4932739;29;20040;-60
2023/11/27 04:18:00;;;;;;;4.03;2.00;;;;;;;;;;4946812;29;20483;-57
2023/11/27 04:20:26;;;;;;;4.38;1.60;;;;;;;;;;4938170;29;20491;-59
2023/11/27 04:22:52;;;;;;;2.83;1.70;;;;;;;;;;4932925;29;20479;-60
2023/11/27 04:25:18;;;;;;;5.32;2.15;;;;;;;;;;4937974;29;20027;-59
2023/11/27 04:27:45;;;;;;;4.45;1.73;;;;;;;;;;4939404;28;20494;-59
2023/11/27 04:30:12;;;;;;;3.53;1.92;;;;;;;;;;4933073;29;20031;-59
2023/11/27 04:32:38;;;;;;;4.15;1.90;;;;;;;;;;4932317;29;20039;-58
2023/11/27 04:35:04;;;;;;;4.03;1.88;;;;;;;;;;4937508;29;20042;-60
2023/11/27 04:37:30;;;;;;;4.15;2.10;;;;;;;;;;4931891;29;20039;-59
2023/11/27 04:39:57;;;;;;;4.85;2.78;;;;;;;;;;4931986;29;20047;-59
2023/11/27 04:42:25;;;;;;;8.82;4.47;;;;;;;;;;4935604;29;20038;-59
2023/11/27 04:44:52;;;;;;;2.55;1.95;;;;;;;;;;4932806;29;20043;-59
2023/11/27 04:47:18;;;;;;;3.10;1.98;;;;;;;;;;4931624;29;20035;-58
2023/11/27 04:49:45;;;;;;;4.57;1.98;;;;;;;;;;4930922;29;20062;-58
2023/11/27 04:52:11;;;;;;;5.90;1.90;;;;;;;;;;4932572;29;20682;-61
2023/11/27 04:54:38;;;;;;;2.53;1.80;;;;;;;;;;4932727;29;20044;-58
2023/11/27 04:57:06;;;;;;;2.50;1.75;;;;;;;;;;4932156;29;20024;-59
2023/11/27 04:59:32;;;;;;;4.22;2.30;;;;;;;;;;4934760;29;20588;-60
2023/11/27 05:01:58;;;;;;;7.43;3.30;;;;;;;;;;4931450;29;20483;-59
2023/11/27 05:04:24;;;;;;;6.68;4.03;;;;;;;;;;4934315;29;20054;-58
2023/11/27 05:06:50;;;;;;;8.15;4.10;;;;;;;;;;4931653;29;20066;-60
2023/11/27 05:09:16;;;;;;;8.13;3.95;;;;;;;;;;4930512;29;20519;-58
2023/11/27 05:11:43;;;;;;;7.90;4.10;;;;;;;;;;4930820;29;20055;-56
2023/11/27 05:14:09;;;;;;;10.40;4.63;;;;;;;;;;4931713;29;20044;-57
2023/11/27 05:16:35;;;;;;;18.67;7.93;;;;;;;;;;4935493;29;20047;-57
2023/11/27 05:19:02;;;;;;;22.70;9.43;;;;;;;;;;4937499;29;20052;-59
2023/11/27 05:21:28;;;;;;;19.10;9.65;;;;;;;;;;4932589;29;20036;-58
2023/11/27 05:23:54;;;;;;;21.80;11.25;;;;;;;;;;4930932;29;20032;-59
2023/11/27 05:26:20;;;;;;;25.63;12.40;;;;;;;;;;4940509;29;20047;-57
2023/11/27 05:28:46;;;;;;;21.95;11.60;;;;;;;;;;4937662;29;20062;-60
2023/11/27 05:31:14;;;;;;;17.58;8.93;;;;;;;;;;4934615;29;20039;-59
2023/11/27 05:33:42;;;;;;;15.13;8.55;;;;;;;;;;4927913;29;20047;-58
2023/11/27 05:36:12;;;;;;;17.63;9.80;;;;;;;;;;4933669;29;20039;-59
2023/11/27 05:38:38;;;;;;;24.80;11.55;;;;;;;;;;4933465;29;20046;-60
2023/11/27 05:41:07;;;;;;;25.58;11.05;;;;;;;;;;4934732;29;20027;-60
2023/11/27 05:43:33;;;;;;;30.88;11.88;;;;;;;;;;4931894;29;20324;-60
2023/11/27 05:46:01;;;;;;;38.67;13.20;;;;;;;;;;4932086;29;20035;-59
2023/11/27 05:48:28;;;;;;;41.13;13.00;;;;;;;;;;4929805;29;20058;-58
2023/11/27 05:50:55;;;;;;;46.70;14.50;;;;;;;;;;4930499;29;20043;-57
2023/11/27 05:53:21;;;;;;;37.60;13.23;;;;;;;;;;4929544;29;20051;-58
2023/11/27 05:55:47;;;;;;;35.65;13.43;;;;;;;;;;4931286;29;20047;-57
2023/11/27 05:58:14;;;;;;;33.88;12.27;;;;;;;;;;4930246;29;20052;-59
2023/11/27 06:00:41;;;;;;;27.10;11.57;;;;;;;;;;4933237;29;20039;-58
2023/11/27 06:03:10;;;;;;;22.90;9.95;;;;;;;;;;4934885;29;20031;-59
2023/11/27 06:05:36;;;;;;;20.85;9.95;;;;;;;;;;4931078;29;20058;-59
2023/11/27 06:08:03;;;;;;;20.38;10.32;;;;;;;;;;4929723;29;20030;-59
2023/11/27 06:10:29;;;;;;;21.92;12.00;;;;;;;;;;4934022;29;20060;-58
2023/11/27 06:12:55;;;;;;;24.92;13.10;;;;;;;;;;4931202;29;20043;-58
2023/11/27 06:15:21;;;;;;;24.63;12.85;;;;;;;;;;4936702;29;20038;-60
2023/11/27 06:17:47;;;;;;;22.00;12.45;;;;;;;;;;4934833;29;20065;-58
2023/11/27 06:20:17;;;;;;;23.25;13.40;;;;;;;;;;4934971;29;20046;-58
2023/11/27 06:22:43;;;;;;;23.90;13.15;;;;;;;;;;4931396;29;20031;-60
2023/11/27 06:25:10;;;;;;;23.98;13.90;;;;;;;;;;4936213;29;20031;-59
2023/11/27 06:27:36;;;;;;;12.57;6.63;;;;;;;;;;4934745;29;20046;-57
2023/11/27 06:30:03;;;;;;;19.20;10.40;;;;;;;;;;4931189;29;20036;-59
2023/11/27 06:32:31;;;;;;;17.38;10.68;;;;;;;;;;4930383;29;20047;-61
2023/11/27 06:34:57;;;;;;;19.48;12.07;;;;;;;;;;4931909;29;20048;-59
2023/11/27 06:37:23;;;;;;;16.23;9.57;;;;;;;;;;4931831;28;20407;-59
2023/11/27 06:39:49;;;;;;;17.15;10.10;;;;;;;;;;4931989;29;20047;-60
2023/11/27 06:42:15;;;;;;;14.95;9.77;;;;;;;;;;4930152;29;20043;-59
2023/11/27 06:44:41;;;;;;;16.88;9.68;;;;;;;;;;4930443;29;20423;-59
2023/11/27 06:47:08;;;;;;;15.95;9.70;;;;;;;;;;4922065;29;20051;-58
2023/11/27 06:49:34;;;;;;;17.45;10.93;;;;;;;;;;4931221;29;20043;-60
2023/11/27 06:52:00;;;;;;;18.48;10.95;;;;;;;;;;4922492;29;20384;-59
2023/11/27 06:54:27;;;;;;;16.95;10.52;;;;;;;;;;4928011;29;20050;-59
2023/11/27 06:56:53;;;;;;;16.98;10.98;;;;;;;;;;4919180;29;20043;-59
2023/11/27 06:59:19;;;;;;;18.38;11.70;;;;;;;;;;4930827;29;20048;-60
2023/11/27 07:01:46;;;;;;;17.98;11.93;;;;;;;;;;4914662;29;20046;-58
2023/11/27 07:04:13;;;;;;;23.13;12.32;;;;;;;;;;4917350;29;20044;-59
2023/11/27 07:06:39;;;;;;;19.92;11.07;;;;;;;;;;4912348;29;20036;-61
2023/11/27 07:09:07;;;;;;;16.83;8.63;;;;;;;;;;4926009;29;20042;-60
2023/11/27 07:11:33;;;;;;;14.18;6.20;;;;;;;;;;4927098;29;20042;-60
2023/11/27 07:14:04;;;;;;;11.30;6.15;;;;;;;;;;4916957;29;20036;-60
2023/11/27 07:16:30;;;;;;;7.72;4.75;;;;;;;;;;4934213;29;20368;-60
2023/11/27 07:18:59;;;;;;;8.05;3.67;;;;;;;;;;4930508;29;20680;-60
2023/11/27 07:21:27;;;;;;;4.57;2.85;;;;;;;;;;4925358;29;20048;-59
2023/11/27 07:23:54;;;;;;;5.28;2.80;;;;;;;;;;4925860;29;20031;-60
2023/11/27 07:26:21;;;;;;;4.40;2.38;;;;;;;;;;4925903;29;20406;-60
2023/11/27 07:28:47;;;;;;;3.65;1.88;;;;;;;;;;4921369;29;20031;-59
2023/11/27 07:31:14;;;;;;;3.50;2.50;;;;;;;;;;4929726;29;20398;-59
2023/11/27 07:33:40;;;;;;;3.35;2.30;;;;;;;;;;4934081;29;20063;-59
2023/11/27 07:36:07;;;;;;;3.78;2.75;;;;;;;;;;4932080;29;20044;-60
2023/11/27 07:38:33;;;;;;;4.78;2.03;;;;;;;;;;4932744;29;20047;-59
2023/11/27 07:40:59;;;;;;;6.40;3.33;;;;;;;;;;4932898;29;20056;-60
2023/11/27 07:43:26;;;;;;;3.38;2.15;;;;;;;;;;4928064;29;20052;-60
2023/11/27 07:45:52;;;;;;;4.13;2.45;;;;;;;;;;4925154;29;20050;-58
2023/11/27 07:48:22;;;;;;;3.13;1.70;;;;;;;;;;4925226;29;20054;-59
2023/11/27 07:50:50;;;;;;;2.95;1.88;;;;;;;;;;4927812;29;20035;-60
2023/11/27 07:53:19;;;;;;;4.40;2.63;;;;;;;;;;4925128;29;20055;-58
2023/11/27 07:55:46;;;;;;;4.07;2.50;;;;;;;;;;4926733;29;20048;-61
2023/11/27 07:58:15;;;;;;;4.22;2.17;;;;;;;;;;4928634;29;20040;-60
2023/11/27 08:00:42;;;;;;;4.80;2.58;;;;;;;;;;4929799;29;20055;-60
2023/11/27 08:03:08;;;;;;;4.55;2.00;;;;;;;;;;4925969;29;20058;-57
2023/11/27 08:05:35;;;;;;;2.97;1.73;;;;;;;;;;4919249;29;20491;-59
2023/11/27 08:08:01;;;;;;;4.93;2.60;;;;;;;;;;4922727;29;20031;-59
2023/11/27 08:10:30;;;;;;;6.88;2.20;;;;;;;;;;4928898;29;20043;-59
2023/11/27 08:12:56;;;;;;;4.90;2.33;;;;;;;;;;4926142;29;20031;-58
2023/11/27 08:15:24;;;;;;;4.57;2.40;;;;;;;;;;4927465;29;20488;-60
2023/11/27 08:17:50;;;;;;;4.38;2.38;;;;;;;;;;4927612;29;20039;-59
2023/11/27 08:20:17;;;;;;;4.47;3.05;;;;;;;;;;4926717;29;20055;-59
2023/11/27 08:22:43;;;;;;;6.55;3.35;;;;;;;;;;4928024;29;20510;-59
2023/11/27 08:25:10;;;;;;;6.18;3.88;;;;;;;;;;4923745;29;20058;-58
2023/11/27 08:27:42;;;;;;;4.43;2.92;;;;;;;;;;4926513;29;20028;-59
2023/11/27 08:30:12;;;;;;;5.78;2.40;;;;;;;;;;4933759;29;20039;-60
2023/11/27 08:32:39;;;;;;;;;;;;;;;;;;4933689;29;20031;-61
2023/11/27 08:35:08;;;;;;;4.00;2.08;;;;;;;;;;4926900;29;20393;-60
2023/11/27 08:37:37;;;;;;;2.90;2.20;;;;;;;;;;4927895;29;20047;-58
2023/11/27 08:40:06;;;;;;;3.35;1.90;;;;;;;;;;4916300;29;20431;-59
2023/11/27 08:42:34;;;;;;;;;;;;;;;;;;4930095;29;20044;-58
2023/11/27 08:45:06;;;;;;;1.65;1.10;;;;;;;;;;4931803;29;19915;-58
2023/11/27 08:47:32;;;;;;;3.17;2.00;;;;;;;;;;4930181;29;20047;-57
2023/11/27 08:50:00;;;;;;;4.63;1.98;;;;;;;;;;4928643;29;20071;-58
2023/11/27 08:52:27;;;;;;;5.25;2.53;;;;;;;;;;4927251;29;20050;-58
2023/11/27 08:54:53;;;;;;;3.20;1.85;;;;;;;;;;4929564;29;20035;-58
2023/11/27 08:57:19;;;;;;;3.67;2.08;;;;;;;;;;4930110;29;20046;-58
2023/11/27 08:59:45;;;;;;;4.45;2.22;;;;;;;;;;4924259;29;20071;-58
2023/11/27 09:02:11;;;;;;;5.20;2.65;;;;;;;;;;4926875;29;20043;-60
2023/11/27 09:04:37;;;;;;;3.85;2.28;;;;;;;;;;4932872;29;20032;-57
2023/11/27 09:07:03;;;;;;;5.40;2.47;;;;;;;;;;4918800;29;20408;-59
2023/11/27 09:09:31;;;;;;;5.03;2.83;;;;;;;;;;4923939;29;20072;-60
2023/11/27 09:11:57;;;;;;;6.78;3.17;;;;;;;;;;4927622;29;20047;-60
2023/11/27 09:14:23;;;;;;;5.80;2.83;;;;;;;;;;4926342;29;20051;-58
2023/11/27 09:16:49;;;;;;;4.10;2.35;;;;;;;;;;4925428;29;20047;-59
2023/11/27 09:19:15;;;;;;;9.13;4.50;;;;;;;;;;4927206;29;20052;-59
2023/11/27 09:21:42;;;;;;;15.40;5.95;;;;;;;;;;4919890;29;20059;-60
2023/11/27 09:24:09;;;;;;;10.55;5.28;;;;;;;;;;4924118;29;20028;-60
2023/11/27 09:26:35;;;;;;;10.13;4.65;;;;;;;;;;4925688;28;20043;-58
2023/11/27 09:29:01;;;;;;;9.38;4.47;;;;;;;;;;4926664;29;20062;-60
2023/11/27 09:31:27;;;;;;;7.47;3.22;;;;;;;;;;4929979;29;20051;-59
2023/11/27 09:33:53;;;;;;;5.50;3.17;;;;;;;;;;4926427;29;20431;-58
2023/11/27 09:36:19;;;;;;;6.43;3.35;;;;;;;;;;4923639;29;20055;-59
2023/11/27 09:38:47;;;;;;;8.07;2.67;;;;;;;;;;4923677;29;20032;-60
2023/11/27 09:41:13;;;;;;;5.03;2.58;;;;;;;;;;4920936;29;20116;-58
2023/11/27 09:43:40;;;;;;;7.25;2.67;;;;;;;;;;4924123;29;20036;-59
2023/11/27 09:46:09;;;;;;;6.03;2.97;;;;;;;;;;4921952;29;20040;-58
2023/11/27 09:48:40;;;;;;;7.28;3.33;;;;;;;;;;4924574;29;20066;-60
2023/11/27 09:51:12;;;;;;;8.13;3.90;;;;;;;;;;4930336;29;20036;-60
2023/11/27 09:53:50;;;;;;;6.05;2.95;;;;;;;;;;4921219;29;20040;-60
2023/11/27 09:56:17;;;;;;;4.97;2.72;;;;;;;;;;4929543;29;20059;-62
2023/11/27 09:58:44;;;;;;;4.10;2.25;;;;;;;;;;4928736;29;20488;-62
2023/11/27 10:01:12;;;;;;;6.28;2.60;;;;;;;;;;4927077;29;20408;-59
2023/11/27 10:03:39;;;;;;;4.85;2.50;;;;;;;;;;4921162;29;20035;-59
2023/11/27 10:06:06;;;;;;;4.88;2.65;;;;;;;;;;4921252;29;20044;-59
2023/11/27 10:08:33;;;;;;;6.78;2.60;;;;;;;;;;4927205;29;20055;-60
2023/11/27 10:10:59;;;;;;;5.15;2.60;;;;;;;;;;4932639;29;20043;-59
2023/11/27 10:13:29;;;;;;;6.82;3.40;;;;;;;;;;4931525;29;20044;-61
2023/11/27 10:15:58;;;;;;;6.57;3.10;;;;;;;;;;4925949;29;20066;-60
2023/11/27 10:18:24;;;;;;;8.07;3.95;;;;;;;;;;4927197;29;20055;-59
2023/11/27 10:20:50;;;;;;;9.30;3.13;;;;;;;;;;4929888;29;20066;-58
2023/11/27 10:23:17;;;;;;;6.38;2.35;;;;;;;;;;4935601;29;20058;-59
2023/11/27 10:25:43;;;;;;;7.07;2.85;;;;;;;;;;4935326;29;20047;-59
2023/11/27 10:28:09;;;;;;;5.80;2.85;;;;;;;;;;4931087;29;20620;-58
2023/11/27 10:30:36;;;;;;;5.07;2.80;;;;;;;;;;4935365;29;20599;-59
2023/11/27 10:33:02;;;;;;;5.70;2.97;;;;;;;;;;4935236;29;20491;-58
2023/11/27 10:35:32;;;;;;;7.72;3.38;;;;;;;;;;4933175;29;20046;-58
2023/11/27 10:37:58;;;;;;;4.45;2.53;;;;;;;;;;4933788;29;20052;-59
2023/11/27 10:40:27;;;;;;;8.82;3.83;;;;;;;;;;4935242;29;20032;-61
2023/11/27 10:43:01;;;;;;;5.22;2.95;;;;;;;;;;4936147;29;20515;-57
2023/11/27 10:45:30;;;;;;;8.95;3.72;;;;;;;;;;4933643;29;20855;-60
2023/11/27 10:48:01;;;;;;;6.50;3.40;;;;;;;;;;4934550;29;20052;-58
2023/11/27 10:50:31;;;;;;;4.95;2.75;;;;;;;;;;4934311;29;20036;-58
2023/11/27 10:52:58;;;;;;;3.65;2.60;;;;;;;;;;4930029;29;20059;-60
2023/11/27 10:55:27;;;;;;;5.97;2.78;;;;;;;;;;4928160;29;20040;-58
2023/11/27 10:57:55;;;;;;;5.82;2.58;;;;;;;;;;4933030;29;20040;-59
2023/11/27 11:00:29;;;;;;;4.72;2.97;;;;;;;;;;4932671;29;20046;-59
2023/11/27 11:03:01;;;;;;;7.13;3.28;;;;;;;;;;4935296;29;20051;-58
2023/11/27 11:05:35;;;;;;;7.47;3.63;;;;;;;;;;4935324;29;20032;-59
2023/11/27 11:08:03;;;;;;;8.10;4.32;;;;;;;;;;4933650;29;20051;-59
2023/11/27 11:10:31;;;;;;;12.95;5.47;;;;;;;;;;4934710;29;20039;-59
2023/11/27 11:13:01;;;;;;;11.02;5.10;;;;;;;;;;4918341;29;20486;-59
2023/11/27 11:15:39;;;;;;;8.02;4.30;;;;;;;;;;4933859;29;20476;-60
2023/11/27 11:18:17;;;;;;;11.00;4.72;;;;;;;;;;4931181;29;20048;-59
2023/11/27 11:21:05;;;;;;;10.15;5.20;;;;;;;;;;4933644;29;20048;-58
2023/11/27 11:23:48;;;;;;;8.98;4.38;;;;;;;;;;4936305;29;20044;-58
2023/11/27 11:26:43;;;;;;;11.38;5.10;;;;;;;;;;4937227;29;20036;-59
2023/11/27 11:29:30;;;;;;;11.07;4.90;;;;;;;;;;4935110;29;20047;-58
2023/11/27 11:32:04;;;;;;;12.18;4.43;;;;;;;;;;4934312;29;20055;-59
2023/11/27 11:34:36;;;;;;;10.65;4.40;;;;;;;;;;4933706;28;20047;-58
2023/11/27 11:37:04;;;;;;;12.07;5.50;;;;;;;;;;4932928;29;20097;-60
2023/11/27 11:39:32;;;;;;;12.25;4.88;;;;;;;;;;4935140;29;20431;-59
2023/11/27 11:42:13;;;;;;;7.60;3.97;;;;;;;;;;4934992;29;20050;-58
2023/11/27 11:44:41;;;;;;;10.63;3.83;;;;;;;;;;4928893;29;20043;-58
2023/11/27 11:47:39;;;;;;;6.68;3.72;;;;;;;;;;4934854;29;20039;-59
2023/11/27 11:50:31;;;;;;;8.40;4.35;;;;;;;;;;4918917;29;21186;-60
2023/11/27 11:53:18;;;;;;;9.00;4.43;;;;;;;;;;4933635;29;20411;-58
2023/11/27 11:55:51;;;;;;;6.95;3.42;;;;;;;;;;4935860;29;20074;-61
2023/11/27 11:58:20;;;;;;;7.15;3.63;;;;;;;;;;4932424;29;20047;-58
2023/11/27 12:00:47;;;;;;;;;;;;;;;;;;4915191;29;20412;-57
2023/11/27 12:03:18;;;;;;;7.72;3.55;;;;;;;;;;4936952;29;19914;-58
2023/11/27 12:05:53;;;;;;;6.57;3.38;;;;;;;;;;4933164;29;20393;-58
2023/11/27 12:08:24;;;;;;;9.50;3.53;;;;;;;;;;4930546;29;20039;-59
2023/11/27 12:10:51;;;;;;;6.78;3.35;;;;;;;;;;4916123;29;20035;-60
2023/11/27 12:13:21;;;;;;;6.45;3.40;;;;;;;;;;4934520;29;20051;-61
2023/11/27 12:15:52;;;;;;;8.88;3.53;;;;;;;;;;4925954;29;20043;-60
2023/11/27 12:18:19;;;;;;;7.63;3.67;;;;;;;;;;4929957;29;20043;-60
2023/11/27 12:20:49;;;;;;;9.43;4.40;;;;;;;;;;4927209;29;20044;-60
2023/11/27 12:23:17;;;;;;;5.38;2.92;;;;;;;;;;4934190;29;20568;-61
2023/11/27 12:25:43;;;;;;;5.07;3.00;;;;;;;;;;4929903;29;20499;-59
2023/11/27 12:28:10;;;;;;;7.95;3.75;;;;;;;;;;4932726;29;20043;-59
2023/11/27 12:30:38;;;;;;;6.07;3.13;;;;;;;;;;4932940;29;20063;-60
2023/11/27 12:33:07;;;;;;;5.03;2.55;;;;;;;;;;4933855;29;20042;-59
2023/11/27 12:35:34;;;;;;;5.97;2.78;;;;;;;;;;4933108;29;20052;-60
2023/11/27 12:38:01;;;;;;;7.60;3.00;;;;;;;;;;4933679;29;20522;-60
2023/11/27 12:40:33;;;;;;;12.75;4.55;;;;;;;;;;4932600;29;20063;-60
2023/11/27 12:43:03;;;;;;;8.68;3.85;;;;;;;;;;4935019;29;20395;-59
2023/11/27 12:45:31;;;;;;;7.00;2.97;;;;;;;;;;4927416;29;20590;-60
2023/11/27 12:47:58;;;;;;;4.72;2.17;;;;;;;;;;4931271;29;20495;-59
2023/11/27 12:50:29;;;;;;;11.52;3.45;;;;;;;;;;4932945;29;20046;-60
2023/11/27 12:53:03;;;;;;;5.22;2.60;;;;;;;;;;4934666;29;20054;-60
2023/11/27 12:55:49;;;;;;;6.97;3.17;;;;;;;;;;4932537;29;20055;-59
2023/11/27 12:58:20;;;;;;;5.70;2.97;;;;;;;;;;4928391;29;20039;-60
2023/11/27 13:00:47;;;;;;;3.60;2.03;;;;;;;;;;4929840;29;20043;-60
2023/11/27 13:03:19;;;;;;;5.78;2.88;;;;;;;;;;4932924;29;20058;-59
2023/11/27 13:05:53;;;;;;;6.18;3.33;;;;;;;;;;4936469;29;20032;-59
2023/11/27 13:08:27;;;;;;;9.27;3.97;;;;;;;;;;4930222;29;20048;-59
2023/11/27 13:10:54;;;;;;;6.60;3.78;;;;;;;;;;4932023;29;20058;-61
2023/11/27 13:13:21;;;;;;;9.40;4.03;;;;;;;;;;4934778;29;20062;-61
2023/11/27 13:15:49;;;;;;;9.50;4.65;;;;;;;;;;4935500;29;20070;-61
2023/11/27 13:18:19;;;;;;;8.85;4.25;;;;;;;;;;4938029;29;20040;-60
2023/11/27 13:20:53;;;;;;;9.85;4.55;;;;;;;;;;4928637;29;20036;-60
2023/11/27 13:23:22;;;;;;;12.57;5.22;;;;;;;;;;4931323;29;20040;-61
2023/11/27 13:25:48;;;;;;;10.48;4.63;;;;;;;;;;4934766;29;20048;-60
2023/11/27 13:28:18;;;;;;;8.30;5.13;;;;;;;;;;4933456;28;20066;-60
2023/11/27 13:30:45;;;;;;;13.95;6.25;;;;;;;;;;4931401;29;20491;-59
2023/11/27 13:33:11;;;;;;;11.23;5.85;;;;;;;;;;4931890;29;20039;-59
2023/11/27 13:35:40;;;;;;;14.10;6.10;;;;;;;;;;4930584;29;20499;-58
2023/11/27 13:38:17;;;;;;;15.32;6.75;;;;;;;;;;4931168;29;20103;-60
2023/11/27 13:40:48;;;;;;;13.02;5.72;;;;;;;;;;4927427;29;20055;-57
2023/11/27 13:43:17;;;;;;;13.88;6.10;;;;;;;;;;4926841;29;20043;-59
2023/11/27 13:45:47;;;;;;;14.15;6.47;;;;;;;;;;4931446;29;20043;-58
2023/11/27 13:48:19;;;;;;;15.52;6.70;;;;;;;;;;4929191;29;20070;-57
2023/11/27 13:50:46;;;;;;;13.85;6.40;;;;;;;;;;4933932;29;20546;-58
2023/11/27 13:53:16;;;;;;;14.75;6.47;;;;;;;;;;4930766;29;20142;-60
2023/11/27 13:55:49;;;;;;;14.50;7.90;;;;;;;;;;4935378;29;20525;-59
2023/11/27 13:58:19;;;;;;;13.35;6.78;;;;;;;;;;4925009;29;20046;-58
2023/11/27 14:00:51;;;;;;;16.80;7.05;;;;;;;;;;4932409;29;20046;-57
2023/11/27 14:07:24;;;;;;;17.38;8.00;;;;;;;;;;4925196;29;20040;-59
2023/11/27 14:09:55;;;;;;;14.82;7.75;;;;;;;;;;4937235;29;20522;-58
2023/11/27 14:12:34;;;;;;;15.52;7.63;;;;;;;;;;4932094;29;20047;-57
2023/11/27 14:15:21;;;;;;;12.00;6.30;;;;;;;;;;4930511;29;20147;-57
2023/11/27 14:18:27;;;;;;;16.25;6.63;;;;;;;;;;4935232;29;20059;-60
2023/11/27 14:21:40;;;;;;;15.82;6.50;;;;;;;;;;4928661;29;20467;-58
2023/11/27 14:28:57;;;;;;;17.85;6.90;;;;;;;;;;4930868;29;20059;-59
2023/11/27 14:31:21;;;;;;;15.70;6.68;;;;;;;;;;4931155;29;20074;-57
2023/11/27 14:33:48;;;;;;;14.88;6.43;;;;;;;;;;4929301;29;20051;-57
2023/11/27 14:36:14;;;;;;;23.10;9.50;;;;;;;;;;4932228;29;20039;-58
2023/11/27 14:38:42;;;;;;;14.63;5.95;;;;;;;;;;4930093;29;20035;-60
2023/11/27 14:41:08;;;;;;;14.32;6.63;;;;;;;;;;4931151;29;20624;-59
2023/11/27 14:43:35;;;;;;;16.63;6.88;;;;;;;;;;4927796;29;20502;-59
2023/11/27 14:46:03;;;;;;;24.45;9.90;;;;;;;;;;4923905;29;20031;-60
2023/11/27 14:48:33;;;;;;;25.73;9.68;;;;;;;;;;4931151;29;20157;-60
2023/11/27 14:51:00;;;;;;;20.23;8.32;;;;;;;;;;4931691;29;20043;-58
2023/11/27 14:53:26;;;;;;;14.98;6.97;;;;;;;;;;4931885;29;20052;-59